createdAt,value
2023-06-10T00:00:08.792Z,13.40
2023-06-10T00:02:35.318Z,13.39
2023-06-10T00:05:01.897Z,13.46
2023-06-10T00:07:28.489Z,13.41
2023-06-10T00:09:56.238Z,13.42
2023-06-10T00:12:22.746Z,13.48
2023-06-10T00:14:51.293Z,13.49
2023-06-10T00:17:18.016Z,13.45
2023-06-10T00:19:44.759Z,13.32
2023-06-10T00:22:11.852Z,13.33
2023-06-10T00:24:38.900Z,13.26
2023-06-10T00:27:06.635Z,13.17
2023-06-10T00:29:33.081Z,13.16
2023-06-10T00:31:59.633Z,13.12
2023-06-10T00:34:26.226Z,13.15
2023-06-10T00:36:52.708Z,13.18
2023-06-10T00:39:19.172Z,13.13
2023-06-10T00:41:45.630Z,13.15
2023-06-10T00:44:12.163Z,13.12
2023-06-10T00:46:38.747Z,13.15
2023-06-10T00:49:05.502Z,13.17
2023-06-10T00:51:32.104Z,13.17
2023-06-10T00:53:58.728Z,13.12
2023-06-10T00:56:26.308Z,13.10
2023-06-10T00:58:53.097Z,13.10
2023-06-10T01:01:21.031Z,13.07
2023-06-10T01:03:49.042Z,13.16
2023-06-10T01:06:38.449Z,13.14
2023-06-10T01:09:19.812Z,13.15
2023-06-10T01:12:09.928Z,13.12
2023-06-10T01:14:39.757Z,13.15
2023-06-10T01:17:10.645Z,13.09
2023-06-10T01:19:37.695Z,13.08
2023-06-10T01:22:04.913Z,13.13
2023-06-10T01:24:35.106Z,13.01
2023-06-10T01:27:07.148Z,13.03
2023-06-10T01:29:46.234Z,13.11
2023-06-10T01:32:27.774Z,13.10
2023-06-10T01:34:56.915Z,13.04
2023-06-10T01:37:25.628Z,12.99
2023-06-10T01:39:52.881Z,13.03
2023-06-10T01:42:19.585Z,12.95
2023-06-10T01:44:46.088Z,13.00
2023-06-10T01:47:12.520Z,12.98
2023-06-10T01:49:39.011Z,12.98
2023-06-10T01:52:06.002Z,13.04
2023-06-10T01:54:32.442Z,13.04
2023-06-10T01:56:58.912Z,13.00
2023-06-10T01:59:25.441Z,12.95
2023-06-10T02:01:51.968Z,12.92
2023-06-10T02:04:18.657Z,12.90
2023-06-10T02:06:46.140Z,12.95
2023-06-10T02:09:12.688Z,13.01
2023-06-10T02:11:39.096Z,12.97
2023-06-10T02:14:05.696Z,12.93
2023-06-10T02:16:32.336Z,12.98
2023-06-10T02:18:59.763Z,12.90
2023-06-10T02:21:26.191Z,12.84
2023-06-10T02:23:52.640Z,12.83
2023-06-10T02:26:19.100Z,12.85
2023-06-10T02:28:45.641Z,12.82
2023-06-10T02:31:12.679Z,12.80
2023-06-10T02:33:41.289Z,12.78
2023-06-10T02:36:08.053Z,12.79
2023-06-10T02:38:34.510Z,12.85
2023-06-10T02:41:01.000Z,12.86
2023-06-10T02:43:27.434Z,12.73
2023-06-10T02:45:53.888Z,12.75
2023-06-10T02:48:20.335Z,12.72
2023-06-10T02:50:46.835Z,12.70
2023-06-10T02:53:13.956Z,12.77
2023-06-10T02:55:40.575Z,12.80
2023-06-10T02:58:07.029Z,12.78
2023-06-10T03:00:34.199Z,12.78
2023-06-10T03:03:03.863Z,12.77
2023-06-10T03:05:30.734Z,12.80
2023-06-10T03:07:57.157Z,12.73
2023-06-10T03:10:23.596Z,12.68
2023-06-10T03:12:50.157Z,12.71
2023-06-10T03:15:16.941Z,12.71
2023-06-10T03:17:43.480Z,12.66
2023-06-10T03:20:11.494Z,12.75
2023-06-10T03:22:39.190Z,12.74
2023-06-10T03:25:07.069Z,12.79
2023-06-10T03:27:34.009Z,12.85
2023-06-10T03:30:00.776Z,12.80
2023-06-10T03:32:27.324Z,12.79
2023-06-10T03:34:58.045Z,12.88
2023-06-10T03:37:25.833Z,12.92
2023-06-10T03:39:52.245Z,12.95
2023-06-10T03:42:18.690Z,13.00
2023-06-10T03:44:47.834Z,12.98
2023-06-10T03:47:14.287Z,13.07
2023-06-10T03:49:41.439Z,13.14
2023-06-10T03:52:08.031Z,13.13
2023-06-10T03:54:35.780Z,13.11
2023-06-10T03:57:02.307Z,13.18
2023-06-10T03:59:29.737Z,13.26
2023-06-10T04:01:56.438Z,13.24
2023-06-10T04:04:24.714Z,13.28
2023-06-10T04:06:51.735Z,13.37
2023-06-10T04:09:18.419Z,13.28
2023-06-10T04:11:44.979Z,13.33
2023-06-10T04:14:11.560Z,13.47
2023-06-10T04:16:39.417Z,13.48
2023-06-10T04:19:06.027Z,13.50
2023-06-10T04:21:34.007Z,13.53
2023-06-10T04:24:00.583Z,13.53
2023-06-10T04:26:28.230Z,13.67
2023-06-10T04:28:54.726Z,13.62
2023-06-10T04:31:21.799Z,13.66
2023-06-10T04:33:48.379Z,13.66
2023-06-10T04:36:15.681Z,13.78
2023-06-10T04:38:42.544Z,13.78
2023-06-10T04:41:09.037Z,13.78
2023-06-10T04:43:35.487Z,13.88
2023-06-10T04:46:02.720Z,14.00
2023-06-10T04:48:29.362Z,14.03
2023-06-10T04:50:56.510Z,14.10
2023-06-10T04:53:23.340Z,14.11
2023-06-10T04:55:49.853Z,14.22
2023-06-10T04:58:16.456Z,14.23
2023-06-10T05:00:42.974Z,14.38
2023-06-10T05:03:09.510Z,14.37
2023-06-10T05:05:36.010Z,14.40
2023-06-10T05:08:02.638Z,14.59
2023-06-10T05:10:32.550Z,14.60
2023-06-10T05:12:59.685Z,14.67
2023-06-10T05:15:26.113Z,14.67
2023-06-10T05:17:52.997Z,14.71
2023-06-10T05:20:19.610Z,14.81
2023-06-10T05:22:46.106Z,15.10
2023-06-10T05:25:12.654Z,15.05
2023-06-10T05:27:40.327Z,15.17
2023-06-10T05:30:08.557Z,15.07
2023-06-10T05:32:35.079Z,15.10
2023-06-10T05:35:02.447Z,15.27
2023-06-10T05:37:28.894Z,15.37
2023-06-10T05:39:55.388Z,15.49
2023-06-10T05:42:21.856Z,15.75
2023-06-10T05:44:48.306Z,16.38
2023-06-10T05:47:14.769Z,16.46
2023-06-10T05:49:41.295Z,16.54
2023-06-10T05:52:07.893Z,16.78
2023-06-10T05:54:34.393Z,17.26
2023-06-10T05:57:00.852Z,17.70
2023-06-10T05:59:27.271Z,17.68
2023-06-10T06:01:53.739Z,17.42
2023-06-10T06:04:20.325Z,17.23
2023-06-10T06:06:46.840Z,17.09
2023-06-10T06:09:13.811Z,17.23
2023-06-10T06:11:40.360Z,17.21
2023-06-10T06:14:06.809Z,17.38
2023-06-10T06:16:33.987Z,18.03
2023-06-10T06:19:00.815Z,18.50
2023-06-10T06:21:27.256Z,18.36
2023-06-10T06:23:53.894Z,18.01
2023-06-10T06:26:20.480Z,18.11
2023-06-10T06:28:46.912Z,17.56
2023-06-10T06:31:13.443Z,17.76
2023-06-10T06:33:39.992Z,17.77
2023-06-10T06:36:06.623Z,17.55
2023-06-10T06:38:33.153Z,17.69
2023-06-10T06:41:03.945Z,17.74
2023-06-10T06:43:31.415Z,17.99
2023-06-10T06:45:58.858Z,18.10
2023-06-10T06:48:25.475Z,17.84
2023-06-10T06:50:52.144Z,18.10
2023-06-10T06:53:18.606Z,17.92
2023-06-10T06:55:45.040Z,17.80
2023-06-10T06:58:11.512Z,17.50
2023-06-10T07:00:38.061Z,17.53
2023-06-10T07:03:04.791Z,17.31
2023-06-10T07:05:32.103Z,17.67
2023-06-10T07:07:58.766Z,17.92
2023-06-10T07:10:26.199Z,18.02
2023-06-10T07:12:53.356Z,17.91
2023-06-10T07:15:20.005Z,18.07
2023-06-10T07:17:46.632Z,18.01
2023-06-10T07:20:14.309Z,18.27
2023-06-10T07:22:40.939Z,18.62
2023-06-10T07:25:08.090Z,18.83
2023-06-10T07:27:34.743Z,19.81
2023-06-10T07:30:02.051Z,19.73
2023-06-10T07:32:28.630Z,19.61
2023-06-10T07:34:55.320Z,19.59
2023-06-10T07:37:21.958Z,19.46
2023-06-10T07:39:48.416Z,19.41
2023-06-10T07:42:15.176Z,19.79
2023-06-10T07:44:41.651Z,19.96
2023-06-10T07:47:08.221Z,19.45
2023-06-10T07:49:34.697Z,19.48
2023-06-10T07:52:01.119Z,19.34
2023-06-10T07:54:30.107Z,19.15
2023-06-10T07:56:56.872Z,19.16
2023-06-10T07:59:23.308Z,19.73
2023-06-10T08:01:49.808Z,19.61
2023-06-10T08:04:16.297Z,19.53
2023-06-10T08:06:42.797Z,19.21
2023-06-10T08:09:09.457Z,19.30
2023-06-10T08:11:36.006Z,19.69
2023-06-10T08:14:02.461Z,19.73
2023-06-10T08:16:29.001Z,19.97
2023-06-10T08:18:56.024Z,19.94
2023-06-10T08:21:22.618Z,20.42
2023-06-10T08:23:49.150Z,20.85
2023-06-10T08:26:15.739Z,20.64
2023-06-10T08:28:43.105Z,20.27
2023-06-10T08:31:09.557Z,20.58
2023-06-10T08:33:36.077Z,20.79
2023-06-10T08:36:02.535Z,20.43
2023-06-10T08:38:29.007Z,20.75
2023-06-10T08:40:59.993Z,21.88
2023-06-10T08:43:43.004Z,22.45
2023-06-10T08:46:11.187Z,22.11
2023-06-10T08:48:43.584Z,21.84
2023-06-10T08:51:11.174Z,22.09
2023-06-10T08:53:43.500Z,21.61
2023-06-10T08:56:11.109Z,21.29
2023-06-10T08:58:42.693Z,21.70
2023-06-10T09:01:10.139Z,22.10
2023-06-10T09:03:38.674Z,21.92
2023-06-10T09:06:06.385Z,21.76
2023-06-10T09:08:35.694Z,21.79
2023-06-10T09:11:02.372Z,22.16
2023-06-10T09:13:29.133Z,22.73
2023-06-10T09:15:57.476Z,22.83
2023-06-10T09:18:24.561Z,22.22
2023-06-10T09:20:51.016Z,22.01
2023-06-10T09:23:17.787Z,22.91
2023-06-10T09:25:44.288Z,23.45
2023-06-10T09:28:15.640Z,22.40
2023-06-10T09:30:42.608Z,22.74
2023-06-10T09:33:18.867Z,23.27
2023-06-10T09:35:51.726Z,23.41
2023-06-10T09:38:22.850Z,23.99
2023-06-10T09:40:52.103Z,24.71
2023-06-10T09:43:18.842Z,24.61
2023-06-10T09:45:48.368Z,24.28
2023-06-10T09:48:14.890Z,23.72
2023-06-10T09:50:45.826Z,23.93
2023-06-10T09:53:13.062Z,24.13
2023-06-10T09:55:40.857Z,24.44
2023-06-10T09:58:07.812Z,25.24
2023-06-10T10:00:35.040Z,25.88
2023-06-10T10:03:02.009Z,25.21
2023-06-10T10:05:28.972Z,24.58
2023-06-10T10:07:57.476Z,24.73
2023-06-10T10:10:24.785Z,25.42
2023-06-10T10:12:58.059Z,25.42
2023-06-10T10:15:29.618Z,26.05
2023-06-10T10:18:08.738Z,26.10
2023-06-10T10:20:43.068Z,25.80
2023-06-10T10:23:11.654Z,26.14
2023-06-10T10:25:41.293Z,25.84
2023-06-10T10:28:16.126Z,25.75
2023-06-10T10:30:53.614Z,26.18
2023-06-10T10:33:24.923Z,25.64
2023-06-10T10:35:52.046Z,25.85
2023-06-10T10:38:18.591Z,25.10
2023-06-10T10:40:46.763Z,25.53
2023-06-10T10:43:14.499Z,25.11
2023-06-10T10:45:41.002Z,24.74
2023-06-10T10:48:13.134Z,26.01
2023-06-10T10:50:40.382Z,26.02
2023-06-10T10:53:07.331Z,26.32
2023-06-10T10:55:36.720Z,26.44
2023-06-10T10:58:14.358Z,25.72
2023-06-10T11:00:46.888Z,26.14
2023-06-10T11:03:15.928Z,26.79
2023-06-10T11:05:48.814Z,27.17
2023-06-10T11:08:30.251Z,27.26
2023-06-10T11:10:56.830Z,27.10
2023-06-10T11:13:23.649Z,26.71
2023-06-10T11:15:51.826Z,26.67
2023-06-10T11:18:29.210Z,26.63
2023-06-10T11:21:02.738Z,26.59
2023-06-10T11:23:29.267Z,27.01
2023-06-10T11:26:14.680Z,27.27
2023-06-10T11:28:42.717Z,27.70
2023-06-10T11:31:20.572Z,26.71
2023-06-10T11:33:48.910Z,27.62
2023-06-10T11:36:15.917Z,27.37
2023-06-10T11:38:43.483Z,27.00
2023-06-10T11:41:10.449Z,27.57
2023-06-10T11:43:37.285Z,28.04
2023-06-10T11:46:03.772Z,28.55
2023-06-10T11:48:31.501Z,28.34
2023-06-10T11:50:58.308Z,27.79
2023-06-10T11:53:24.726Z,27.22
2023-06-10T11:55:52.588Z,26.64
2023-06-10T11:58:21.307Z,27.39
2023-06-10T12:00:57.192Z,27.49
2023-06-10T12:03:23.882Z,28.22
2023-06-10T12:06:02.137Z,28.51
2023-06-10T12:08:28.812Z,27.81
2023-06-10T12:10:56.225Z,27.24
2023-06-10T12:13:24.784Z,27.80
2023-06-10T12:15:51.376Z,27.44
2023-06-10T12:18:19.867Z,27.64
2023-06-10T12:20:46.952Z,27.67
2023-06-10T12:23:14.246Z,27.93
2023-06-10T12:25:40.985Z,28.62
2023-06-10T12:28:12.245Z,28.77
2023-06-10T12:30:38.700Z,28.43
2023-06-10T12:33:05.350Z,29.01
2023-06-10T12:35:32.201Z,29.24
2023-06-10T12:38:02.015Z,29.24
2023-06-10T12:40:34.480Z,29.05
2023-06-10T12:43:01.551Z,28.74
2023-06-10T12:45:40.783Z,28.53
2023-06-10T12:48:32.170Z,29.83
2023-06-10T12:50:59.375Z,29.27
2023-06-10T12:53:29.624Z,28.85
2023-06-10T12:55:56.060Z,28.80
2023-06-10T12:58:24.225Z,27.55
2023-06-10T13:00:53.564Z,27.54
2023-06-10T13:03:20.077Z,27.37
2023-06-10T13:05:46.629Z,27.58
2023-06-10T13:08:13.147Z,27.72
2023-06-10T13:10:40.215Z,26.33
2023-06-10T13:13:08.522Z,26.41
2023-06-10T13:15:41.514Z,26.32
2023-06-10T13:18:10.061Z,26.14
2023-06-10T13:20:37.185Z,25.71
2023-06-10T13:23:03.669Z,25.85
2023-06-10T13:25:30.144Z,25.37
2023-06-10T13:27:56.730Z,25.02
2023-06-10T13:30:23.194Z,25.31
2023-06-10T13:32:49.785Z,25.33
2023-06-10T13:35:16.463Z,25.38
2023-06-10T13:37:42.947Z,25.22
2023-06-10T13:40:11.039Z,25.05
2023-06-10T13:42:37.995Z,25.12
2023-06-10T13:45:05.886Z,25.21
2023-06-10T13:47:32.437Z,24.94
2023-06-10T13:49:58.899Z,24.67
2023-06-10T13:52:25.371Z,24.12
2023-06-10T13:54:51.832Z,24.50
2023-06-10T13:57:18.301Z,24.69
2023-06-10T13:59:45.101Z,24.47
2023-06-10T14:02:11.683Z,24.26
2023-06-10T14:04:38.221Z,24.53
2023-06-10T14:07:04.968Z,24.33
2023-06-10T14:09:31.421Z,24.69
2023-06-10T14:11:57.886Z,24.37
2023-06-10T14:14:24.315Z,24.68
2023-06-10T14:16:50.958Z,24.61
2023-06-10T14:19:17.526Z,24.59
2023-06-10T14:21:43.959Z,24.98
2023-06-10T14:24:10.473Z,24.62
2023-06-10T14:26:36.943Z,24.72
2023-06-10T14:29:03.830Z,24.30
2023-06-10T14:31:30.490Z,24.33
2023-06-10T14:33:56.982Z,24.12
2023-06-10T14:36:23.508Z,24.09
2023-06-10T14:38:49.993Z,23.94
2023-06-10T14:41:16.490Z,23.73
2023-06-10T14:43:42.925Z,23.58
2023-06-10T14:46:09.442Z,23.71
2023-06-10T14:48:37.093Z,23.37
2023-06-10T14:51:03.705Z,23.62
2023-06-10T14:53:30.323Z,23.29
2023-06-10T14:55:56.749Z,23.25
2023-06-10T14:58:23.167Z,23.20
2023-06-10T15:00:49.658Z,23.19
2023-06-10T15:03:16.169Z,22.99
2023-06-10T15:05:42.608Z,23.20
2023-06-10T15:08:09.079Z,22.66
2023-06-10T15:10:35.529Z,23.18
2023-06-10T15:13:01.963Z,23.53
2023-06-10T15:15:28.469Z,23.61
2023-06-10T15:17:55.337Z,23.53
2023-06-10T15:20:21.887Z,23.42
2023-06-10T15:22:48.416Z,23.41
2023-06-10T15:27:44.382Z,23.51
2023-06-10T15:30:11.107Z,23.00
2023-06-10T15:32:37.595Z,22.99
2023-06-10T15:35:04.327Z,22.98
2023-06-10T15:37:30.992Z,23.25
2023-06-10T15:39:57.449Z,23.39
2023-06-10T15:42:24.764Z,23.17
2023-06-10T15:44:53.449Z,23.37
2023-06-10T15:47:21.234Z,23.00
2023-06-10T15:49:47.713Z,23.02
2023-06-10T15:52:14.270Z,22.88
2023-06-10T15:54:40.742Z,22.18
2023-06-10T15:57:08.777Z,22.48
2023-06-10T15:59:35.653Z,22.42
2023-06-10T16:02:02.080Z,22.48
2023-06-10T16:04:28.551Z,22.58
2023-06-10T16:06:55.565Z,22.66
2023-06-10T16:09:21.997Z,22.54
2023-06-10T16:11:48.416Z,22.14
2023-06-10T16:14:15.041Z,21.91
2023-06-10T16:16:41.512Z,21.73
2023-06-10T16:19:08.008Z,21.85
2023-06-10T16:21:34.467Z,21.74
2023-06-10T16:24:01.447Z,21.97
2023-06-10T16:26:27.941Z,21.73
2023-06-10T16:28:54.375Z,21.58
2023-06-10T16:31:21.269Z,21.73
2023-06-10T16:33:47.881Z,21.49
2023-06-10T16:36:14.313Z,21.30
2023-06-10T16:38:41.418Z,21.55
2023-06-10T16:41:07.858Z,21.57
2023-06-10T16:43:34.341Z,21.36
2023-06-10T16:46:00.841Z,21.48
2023-06-10T16:48:27.276Z,21.24
2023-06-10T16:50:53.813Z,21.14
2023-06-10T16:53:20.329Z,20.95
2023-06-10T16:55:46.745Z,20.80
2023-06-10T16:58:13.227Z,21.05
2023-06-10T17:00:39.934Z,21.13
2023-06-10T17:03:06.429Z,21.11
2023-06-10T17:05:32.971Z,20.92
2023-06-10T17:07:59.642Z,20.80
2023-06-10T17:10:26.114Z,20.83
2023-06-10T17:12:52.531Z,20.94
2023-06-10T17:15:18.945Z,20.97
2023-06-10T17:17:45.525Z,20.73
2023-06-10T17:20:12.689Z,20.64
2023-06-10T17:22:40.211Z,20.43
2023-06-10T17:25:06.905Z,20.39
2023-06-10T17:27:33.389Z,20.40
2023-06-10T17:29:59.838Z,20.40
2023-06-10T17:32:26.429Z,20.30
2023-06-10T17:34:52.855Z,20.07
2023-06-10T17:37:19.283Z,20.11
2023-06-10T17:39:45.769Z,20.07
2023-06-10T17:42:12.177Z,19.93
2023-06-10T17:44:38.620Z,19.95
2023-06-10T17:47:05.311Z,19.84
2023-06-10T17:49:33.134Z,19.58
2023-06-10T17:52:00.140Z,19.73
2023-06-10T17:54:26.612Z,19.75
2023-06-10T17:56:53.046Z,19.73
2023-06-10T17:59:19.540Z,19.47
2023-06-10T18:01:46.149Z,19.52
2023-06-10T18:04:12.738Z,19.27
2023-06-10T18:06:40.145Z,19.24
2023-06-10T18:09:07.339Z,19.17
2023-06-10T18:11:34.861Z,19.08
2023-06-10T18:14:01.361Z,18.96
2023-06-10T18:16:29.804Z,18.88
2023-06-10T18:18:56.494Z,18.97
2023-06-10T18:21:23.006Z,18.80
2023-06-10T18:23:49.497Z,18.80
2023-06-10T18:26:16.162Z,18.70
2023-06-10T18:28:42.591Z,18.62
2023-06-10T18:31:09.102Z,18.69
2023-06-10T18:33:35.585Z,18.59
2023-06-10T18:36:02.144Z,18.32
2023-06-10T18:38:28.654Z,18.21
2023-06-10T18:40:55.120Z,18.33
2023-06-10T18:43:21.522Z,18.35
2023-06-10T18:45:47.982Z,18.29
2023-06-10T18:48:14.476Z,18.16
2023-06-10T18:50:41.075Z,18.03
2023-06-10T18:53:07.552Z,17.96
2023-06-10T18:55:36.898Z,17.90
2023-06-10T18:58:04.712Z,17.78
2023-06-10T19:00:32.056Z,17.80
2023-06-10T19:02:58.611Z,17.75
2023-06-10T19:05:25.411Z,17.57
2023-06-10T19:07:52.002Z,17.55
2023-06-10T19:10:19.871Z,17.51
2023-06-10T19:12:46.712Z,17.61
2023-06-10T19:15:13.270Z,17.42
2023-06-10T19:17:40.770Z,17.45
2023-06-10T19:20:08.209Z,17.34
2023-06-10T19:22:34.758Z,17.26
2023-06-10T19:25:02.389Z,17.19
2023-06-10T19:27:30.149Z,17.18
2023-06-10T19:29:58.424Z,17.14
2023-06-10T19:32:25.699Z,17.07
2023-06-10T19:34:52.226Z,17.01
2023-06-10T19:37:18.896Z,16.91
2023-06-10T19:39:45.382Z,16.87
2023-06-10T19:42:15.154Z,16.76
2023-06-10T19:44:42.082Z,16.80
2023-06-10T19:47:08.644Z,16.75
2023-06-10T19:49:35.116Z,16.77
2023-06-10T19:52:06.907Z,16.76
2023-06-10T19:54:34.416Z,16.74
2023-06-10T19:57:02.214Z,16.67
2023-06-10T19:59:32.625Z,16.72
2023-06-10T20:01:59.002Z,16.68
2023-06-10T20:04:25.843Z,16.57
2023-06-10T20:06:52.340Z,16.43
2023-06-10T20:09:18.779Z,16.36
2023-06-10T20:11:45.306Z,16.35
2023-06-10T20:14:11.985Z,16.38
2023-06-10T20:16:38.502Z,16.28
2023-06-10T20:19:05.187Z,16.24
2023-06-10T20:21:31.726Z,16.21
2023-06-10T20:23:58.227Z,16.21
2023-06-10T20:26:24.695Z,16.18
2023-06-10T20:28:51.279Z,16.12
2023-06-10T20:31:17.756Z,16.15
2023-06-10T20:33:44.185Z,16.02
2023-06-10T20:36:10.777Z,16.01
2023-06-10T20:38:37.318Z,15.91
2023-06-10T20:41:03.872Z,15.94
2023-06-10T20:43:30.407Z,15.88
2023-06-10T20:45:57.769Z,15.79
2023-06-10T20:48:24.298Z,15.87
2023-06-10T20:50:50.806Z,15.83
2023-06-10T20:53:17.299Z,15.78
2023-06-10T20:55:43.931Z,15.72
2023-06-10T20:58:11.117Z,15.76
2023-06-10T21:00:37.586Z,15.65
2023-06-10T21:03:04.375Z,15.64
2023-06-10T21:05:30.875Z,15.58
2023-06-10T21:07:57.371Z,15.64
2023-06-10T21:10:23.904Z,15.61
2023-06-10T21:12:50.662Z,15.48
2023-06-10T21:15:18.192Z,15.47
2023-06-10T21:17:45.337Z,15.43
2023-06-10T21:20:16.881Z,15.36
2023-06-10T21:22:43.405Z,15.42
2023-06-10T21:25:10.488Z,15.50
2023-06-10T21:27:37.243Z,15.33
2023-06-10T21:30:04.092Z,15.34
2023-06-10T21:32:32.566Z,15.34
2023-06-10T21:34:59.161Z,15.28
2023-06-10T21:37:25.796Z,15.27
2023-06-10T21:39:52.279Z,15.22
2023-06-10T21:42:18.747Z,15.25
2023-06-10T21:44:45.847Z,15.25
2023-06-10T21:47:12.554Z,15.17
2023-06-10T21:49:39.094Z,15.22
2023-06-10T21:52:06.012Z,15.13
2023-06-10T21:54:32.549Z,15.20
2023-06-10T21:56:59.005Z,15.13
2023-06-10T21:59:25.586Z,15.17
2023-06-10T22:01:52.177Z,15.19
2023-06-10T22:04:18.717Z,15.12
2023-06-10T22:06:46.836Z,15.00
2023-06-10T22:09:13.624Z,15.01
2023-06-10T22:11:40.119Z,14.98
2023-06-10T22:14:07.174Z,14.97
2023-06-10T22:16:33.668Z,14.96
2023-06-10T22:19:00.163Z,15.00
2023-06-10T22:21:26.825Z,14.95
2023-06-10T22:23:54.687Z,14.90
2023-06-10T22:26:21.755Z,14.95
2023-06-10T22:28:48.311Z,14.94
2023-06-10T22:31:14.961Z,14.87
2023-06-10T22:33:41.470Z,14.91
2023-06-10T22:36:07.978Z,14.79
2023-06-10T22:38:34.450Z,14.77
2023-06-10T22:41:00.938Z,14.88
2023-06-10T22:43:27.439Z,14.68
2023-06-10T22:45:53.925Z,14.70
2023-06-10T22:48:20.604Z,14.75
2023-06-10T22:50:47.424Z,14.78
2023-06-10T22:53:13.992Z,14.73
2023-06-10T22:55:40.762Z,14.70
2023-06-10T22:58:07.247Z,14.70
2023-06-10T23:00:35.006Z,14.70
2023-06-10T23:03:01.616Z,14.64
2023-06-10T23:05:28.272Z,14.67
2023-06-10T23:07:54.773Z,14.63
2023-06-10T23:10:21.374Z,14.57
2023-06-10T23:12:47.859Z,14.60
2023-06-10T23:15:14.360Z,14.63
2023-06-10T23:17:40.920Z,14.57
2023-06-10T23:20:08.825Z,14.53
2023-06-10T23:22:37.686Z,14.52
2023-06-10T23:25:05.218Z,14.52
2023-06-10T23:27:31.807Z,14.67
2023-06-10T23:30:00.497Z,14.65
2023-06-10T23:32:27.951Z,14.61
2023-06-10T23:34:54.777Z,14.62
2023-06-10T23:37:21.576Z,14.60
2023-06-10T23:39:49.432Z,14.50
2023-06-10T23:42:16.269Z,14.44
2023-06-10T23:44:42.762Z,14.41
2023-06-10T23:47:09.594Z,14.32
2023-06-10T23:49:36.168Z,14.42
2023-06-10T23:52:02.719Z,14.27
2023-06-10T23:54:29.737Z,14.27
2023-06-10T23:57:00.627Z,14.19
2023-06-10T23:59:27.141Z,14.19
